sensor_id;sensor_type;location;lat;lon;timestamp;temperature;humidity
22966;DHT22;11649;48.090;9.754;2024-01-15T00:00:22;-0.30;99.90
22966;DHT22;11649;48.090;9.754;2024-01-15T00:02:49;-0.30;99.90
22966;DHT22;11649;48.090;9.754;2024-01-15T00:05:15;-0.30;99.90
22966;DHT22;11649;48.090;9.754;2024-01-15T00:07:42;-0.30;99.90
22966;DHT22;11649;48.090;9.754;2024-01-15T00:10:09;-0.30;99.90
22966;DHT22;11649;48.090;9.754;2024-01-15T00:12:36;-0.30;99.90
22966;DHT22;11649;48.090;9.754;2024-01-15T00:15:03;-0.30;99.90
22966;DHT22;11649;48.090;9.754;2024-01-15T00:17:31;-0.20;99.90
22966;DHT22;11649;48.090;9.754;2024-01-15T00:19:58;-0.20;99.90
22966;DHT22;11649;48.090;9.754;2024-01-15T00:22:25;-0.20;99.90
22966;DHT22;11649;48.090;9.754;2024-01-15T00:24:53;-0.20;99.90
22966;DHT22;11649;48.090;9.754;2024-01-15T00:27:19;-0.30;99.90
22966;DHT22;11649;48.090;9.754;2024-01-15T00:29:46;-0.30;99.90
22966;DHT22;11649;48.090;9.754;2024-01-15T00:32:13;-0.40;99.90
22966;DHT22;11649;48.090;9.754;2024-01-15T00:34:40;-0.50;99.90
22966;DHT22;11649;48.090;9.754;2024-01-15T00:37:07;-0.60;99.90
22966;DHT22;11649;48.090;9.754;2024-01-15T00:39:34;-0.60;99.90
22966;DHT22;11649;48.090;9.754;2024-01-15T00:42:02;-0.70;99.90
22966;DHT22;11649;48.090;9.754;2024-01-15T00:44:29;-0.70;99.90
22966;DHT22;11649;48.090;9.754;2024-01-15T00:46:56;-0.80;99.90
22966;DHT22;11649;48.090;9.754;2024-01-15T00:49:23;-0.80;99.90
22966;DHT22;11649;48.090;9.754;2024-01-15T00:51:51;-0.90;99.90
22966;DHT22;11649;48.090;9.754;2024-01-15T00:54:17;-0.90;99.90
22966;DHT22;11649;48.090;9.754;2024-01-15T00:56:44;-0.90;99.90
22966;DHT22;11649;48.090;9.754;2024-01-15T00:59:11;-0.90;99.90
22966;DHT22;11649;48.090;9.754;2024-01-15T01:01:42;-1.10;99.90
22966;DHT22;11649;48.090;9.754;2024-01-15T01:04:10;-1.10;99.90
22966;DHT22;11649;48.090;9.754;2024-01-15T01:06:37;-1.10;99.90
22966;DHT22;11649;48.090;9.754;2024-01-15T01:09:04;-1.20;99.90
22966;DHT22;11649;48.090;9.754;2024-01-15T01:11:31;-1.20;99.90
22966;DHT22;11649;48.090;9.754;2024-01-15T01:13:58;-1.20;99.90
22966;DHT22;11649;48.090;9.754;2024-01-15T01:16:25;-1.30;99.90
22966;DHT22;11649;48.090;9.754;2024-01-15T01:18:52;-1.30;99.90
22966;DHT22;11649;48.090;9.754;2024-01-15T01:21:19;-1.40;99.90
22966;DHT22;11649;48.090;9.754;2024-01-15T01:23:46;-1.60;99.90
22966;DHT22;11649;48.090;9.754;2024-01-15T01:26:16;-1.60;99.90
22966;DHT22;11649;48.090;9.754;2024-01-15T01:28:43;-1.50;99.90
22966;DHT22;11649;48.090;9.754;2024-01-15T01:31:09;-1.40;99.90
22966;DHT22;11649;48.090;9.754;2024-01-15T01:33:38;-1.40;99.90
22966;DHT22;11649;48.090;9.754;2024-01-15T01:36:09;-1.30;99.90
22966;DHT22;11649;48.090;9.754;2024-01-15T01:38:37;-1.40;99.90
22966;DHT22;11649;48.090;9.754;2024-01-15T01:41:04;-1.50;99.90
22966;DHT22;11649;48.090;9.754;2024-01-15T01:43:31;-1.40;99.90
22966;DHT22;11649;48.090;9.754;2024-01-15T01:46:00;-1.40;99.90
22966;DHT22;11649;48.090;9.754;2024-01-15T01:48:28;-1.30;99.90
22966;DHT22;11649;48.090;9.754;2024-01-15T01:50:58;-1.30;99.90
22966;DHT22;11649;48.090;9.754;2024-01-15T01:53:26;-1.50;99.90
22966;DHT22;11649;48.090;9.754;2024-01-15T01:55:56;-1.70;99.90
22966;DHT22;11649;48.090;9.754;2024-01-15T01:58:23;-1.80;99.90
22966;DHT22;11649;48.090;9.754;2024-01-15T02:00:52;-1.70;99.90
22966;DHT22;11649;48.090;9.754;2024-01-15T02:03:19;-1.70;99.90
22966;DHT22;11649;48.090;9.754;2024-01-15T02:05:48;-1.80;99.90
22966;DHT22;11649;48.090;9.754;2024-01-15T02:08:15;-2.00;99.90
22966;DHT22;11649;48.090;9.754;2024-01-15T02:10:42;-1.90;99.90
22966;DHT22;11649;48.090;9.754;2024-01-15T02:13:09;-1.80;99.90
22966;DHT22;11649;48.090;9.754;2024-01-15T02:15:36;-1.80;99.90
22966;DHT22;11649;48.090;9.754;2024-01-15T02:18:04;-1.70;99.90
22966;DHT22;11649;48.090;9.754;2024-01-15T02:20:32;-1.60;99.90
22966;DHT22;11649;48.090;9.754;2024-01-15T02:23:13;-1.60;99.90
22966;DHT22;11649;48.090;9.754;2024-01-15T02:25:44;-1.50;99.90
22966;DHT22;11649;48.090;9.754;2024-01-15T02:28:13;-1.50;99.90
22966;DHT22;11649;48.090;9.754;2024-01-15T02:30:41;-1.50;99.90
22966;DHT22;11649;48.090;9.754;2024-01-15T02:33:09;-1.50;99.90
22966;DHT22;11649;48.090;9.754;2024-01-15T02:35:37;-1.50;99.90
22966;DHT22;11649;48.090;9.754;2024-01-15T02:38:07;-1.60;99.90
22966;DHT22;11649;48.090;9.754;2024-01-15T02:40:35;-1.60;99.90
22966;DHT22;11649;48.090;9.754;2024-01-15T02:43:02;-1.60;99.90
22966;DHT22;11649;48.090;9.754;2024-01-15T02:45:29;-1.60;99.90
22966;DHT22;11649;48.090;9.754;2024-01-15T02:47:57;-1.60;99.90
22966;DHT22;11649;48.090;9.754;2024-01-15T02:50:24;-1.60;99.90
22966;DHT22;11649;48.090;9.754;2024-01-15T02:52:51;-1.60;99.90
22966;DHT22;11649;48.090;9.754;2024-01-15T02:55:17;-1.60;99.90
22966;DHT22;11649;48.090;9.754;2024-01-15T02:57:44;-1.60;99.90
22966;DHT22;11649;48.090;9.754;2024-01-15T03:00:12;-1.60;99.90
22966;DHT22;11649;48.090;9.754;2024-01-15T03:02:39;-1.70;99.90
22966;DHT22;11649;48.090;9.754;2024-01-15T03:05:10;-1.70;99.90
22966;DHT22;11649;48.090;9.754;2024-01-15T03:07:37;-1.60;99.90
22966;DHT22;11649;48.090;9.754;2024-01-15T03:10:07;-1.70;99.90
22966;DHT22;11649;48.090;9.754;2024-01-15T03:12:34;-1.70;99.90
22966;DHT22;11649;48.090;9.754;2024-01-15T03:15:01;-1.50;99.90
22966;DHT22;11649;48.090;9.754;2024-01-15T03:17:29;-1.40;99.90
22966;DHT22;11649;48.090;9.754;2024-01-15T03:19:56;-1.50;99.90
22966;DHT22;11649;48.090;9.754;2024-01-15T03:22:22;-1.40;99.90
22966;DHT22;11649;48.090;9.754;2024-01-15T03:24:49;-1.40;99.90
22966;DHT22;11649;48.090;9.754;2024-01-15T03:27:16;-1.40;99.90
22966;DHT22;11649;48.090;9.754;2024-01-15T03:29:43;-1.20;99.90
22966;DHT22;11649;48.090;9.754;2024-01-15T03:32:10;-1.20;99.90
22966;DHT22;11649;48.090;9.754;2024-01-15T03:34:36;-1.10;99.90
22966;DHT22;11649;48.090;9.754;2024-01-15T03:37:03;-1.00;99.90
22966;DHT22;11649;48.090;9.754;2024-01-15T03:39:30;-0.90;99.90
22966;DHT22;11649;48.090;9.754;2024-01-15T03:41:57;-0.80;99.90
22966;DHT22;11649;48.090;9.754;2024-01-15T03:44:24;-0.80;99.90
22966;DHT22;11649;48.090;9.754;2024-01-15T03:46:51;-0.90;99.90
22966;DHT22;11649;48.090;9.754;2024-01-15T03:49:18;-0.90;99.90
22966;DHT22;11649;48.090;9.754;2024-01-15T03:51:45;-0.90;99.90
22966;DHT22;11649;48.090;9.754;2024-01-15T03:54:12;-0.70;99.90
22966;DHT22;11649;48.090;9.754;2024-01-15T03:56:39;-0.70;99.90
22966;DHT22;11649;48.090;9.754;2024-01-15T03:59:05;-0.70;99.90
22966;DHT22;11649;48.090;9.754;2024-01-15T04:01:32;-0.70;99.90
22966;DHT22;11649;48.090;9.754;2024-01-15T04:03:59;-0.70;99.90
22966;DHT22;11649;48.090;9.754;2024-01-15T04:06:26;-0.70;99.90
22966;DHT22;11649;48.090;9.754;2024-01-15T04:08:53;-0.80;99.90
22966;DHT22;11649;48.090;9.754;2024-01-15T04:11:19;-0.80;99.90
22966;DHT22;11649;48.090;9.754;2024-01-15T04:13:46;-0.70;99.90
22966;DHT22;11649;48.090;9.754;2024-01-15T04:16:13;-0.70;99.90
22966;DHT22;11649;48.090;9.754;2024-01-15T04:18:40;-0.70;99.90
22966;DHT22;11649;48.090;9.754;2024-01-15T04:21:06;-0.80;99.90
22966;DHT22;11649;48.090;9.754;2024-01-15T04:23:33;-0.90;99.90
22966;DHT22;11649;48.090;9.754;2024-01-15T04:26:00;-0.80;99.90
22966;DHT22;11649;48.090;9.754;2024-01-15T04:28:27;-0.80;99.90
22966;DHT22;11649;48.090;9.754;2024-01-15T04:30:54;-0.90;99.90
22966;DHT22;11649;48.090;9.754;2024-01-15T04:33:21;-1.00;99.90
22966;DHT22;11649;48.090;9.754;2024-01-15T04:35:49;-1.10;99.90
22966;DHT22;11649;48.090;9.754;2024-01-15T04:38:15;-1.40;99.90
22966;DHT22;11649;48.090;9.754;2024-01-15T04:40:42;-1.50;99.90
22966;DHT22;11649;48.090;9.754;2024-01-15T04:43:09;-1.50;99.90
22966;DHT22;11649;48.090;9.754;2024-01-15T04:45:36;-1.40;99.90
22966;DHT22;11649;48.090;9.754;2024-01-15T04:48:03;-1.10;99.90
22966;DHT22;11649;48.090;9.754;2024-01-15T04:50:30;-1.10;99.90
22966;DHT22;11649;48.090;9.754;2024-01-15T04:52:57;-1.10;99.90
22966;DHT22;11649;48.090;9.754;2024-01-15T04:55:23;-1.10;99.90
22966;DHT22;11649;48.090;9.754;2024-01-15T04:57:50;-1.20;99.90
22966;DHT22;11649;48.090;9.754;2024-01-15T05:00:17;-1.10;99.90
22966;DHT22;11649;48.090;9.754;2024-01-15T05:02:44;-1.00;99.90
22966;DHT22;11649;48.090;9.754;2024-01-15T05:05:11;-1.00;99.90
22966;DHT22;11649;48.090;9.754;2024-01-15T05:07:38;-1.00;99.90
22966;DHT22;11649;48.090;9.754;2024-01-15T05:10:05;-0.90;99.90
22966;DHT22;11649;48.090;9.754;2024-01-15T05:12:32;-0.80;99.90
22966;DHT22;11649;48.090;9.754;2024-01-15T05:14:58;-0.80;99.90
22966;DHT22;11649;48.090;9.754;2024-01-15T05:17:25;-0.80;99.90
22966;DHT22;11649;48.090;9.754;2024-01-15T05:19:52;-0.80;99.90
22966;DHT22;11649;48.090;9.754;2024-01-15T05:22:19;-0.70;99.90
22966;DHT22;11649;48.090;9.754;2024-01-15T05:24:47;-0.70;99.90
22966;DHT22;11649;48.090;9.754;2024-01-15T05:27:14;-0.80;99.90
22966;DHT22;11649;48.090;9.754;2024-01-15T05:29:41;-0.90;99.90
22966;DHT22;11649;48.090;9.754;2024-01-15T05:32:08;-0.80;99.90
22966;DHT22;11649;48.090;9.754;2024-01-15T05:34:35;-0.70;99.90
22966;DHT22;11649;48.090;9.754;2024-01-15T05:37:02;-0.70;99.90
22966;DHT22;11649;48.090;9.754;2024-01-15T05:39:29;-0.60;99.90
22966;DHT22;11649;48.090;9.754;2024-01-15T05:41:55;-0.60;99.90
22966;DHT22;11649;48.090;9.754;2024-01-15T05:44:22;-0.60;99.90
22966;DHT22;11649;48.090;9.754;2024-01-15T05:46:49;-0.60;99.90
22966;DHT22;11649;48.090;9.754;2024-01-15T05:49:16;-0.50;99.90
22966;DHT22;11649;48.090;9.754;2024-01-15T05:51:43;-0.40;99.90
22966;DHT22;11649;48.090;9.754;2024-01-15T05:54:10;-0.40;99.90
22966;DHT22;11649;48.090;9.754;2024-01-15T05:56:36;-0.40;99.90
22966;DHT22;11649;48.090;9.754;2024-01-15T05:59:03;-0.40;99.90
22966;DHT22;11649;48.090;9.754;2024-01-15T06:01:30;-0.30;99.90
22966;DHT22;11649;48.090;9.754;2024-01-15T06:03:57;-0.30;99.90
22966;DHT22;11649;48.090;9.754;2024-01-15T06:06:24;-0.20;99.90
22966;DHT22;11649;48.090;9.754;2024-01-15T06:08:50;-0.20;99.90
22966;DHT22;11649;48.090;9.754;2024-01-15T06:11:17;-0.20;99.90
22966;DHT22;11649;48.090;9.754;2024-01-15T06:13:44;-0.10;99.90
22966;DHT22;11649;48.090;9.754;2024-01-15T06:16:14;-0.20;99.90
22966;DHT22;11649;48.090;9.754;2024-01-15T06:18:43;-0.10;99.90
22966;DHT22;11649;48.090;9.754;2024-01-15T06:21:10;0.00;99.90
22966;DHT22;11649;48.090;9.754;2024-01-15T06:23:39;0.00;99.90
22966;DHT22;11649;48.090;9.754;2024-01-15T06:26:06;0.00;99.90
22966;DHT22;11649;48.090;9.754;2024-01-15T06:28:32;-0.10;99.90
22966;DHT22;11649;48.090;9.754;2024-01-15T06:30:59;-0.20;99.90
22966;DHT22;11649;48.090;9.754;2024-01-15T06:33:29;-0.10;99.90
22966;DHT22;11649;48.090;9.754;2024-01-15T06:35:56;-0.10;99.90
22966;DHT22;11649;48.090;9.754;2024-01-15T06:38:23;-0.10;99.90
22966;DHT22;11649;48.090;9.754;2024-01-15T06:40:50;-0.10;99.90
22966;DHT22;11649;48.090;9.754;2024-01-15T06:43:19;-0.10;99.90
22966;DHT22;11649;48.090;9.754;2024-01-15T06:45:46;-0.20;99.90
22966;DHT22;11649;48.090;9.754;2024-01-15T06:48:13;-0.10;99.90
22966;DHT22;11649;48.090;9.754;2024-01-15T06:50:43;0.00;99.90
22966;DHT22;11649;48.090;9.754;2024-01-15T06:53:10;0.00;99.90
22966;DHT22;11649;48.090;9.754;2024-01-15T06:55:38;0.10;99.90
22966;DHT22;11649;48.090;9.754;2024-01-15T06:58:05;0.00;99.90
22966;DHT22;11649;48.090;9.754;2024-01-15T07:00:32;0.10;99.90
22966;DHT22;11649;48.090;9.754;2024-01-15T07:02:59;0.00;99.90
22966;DHT22;11649;48.090;9.754;2024-01-15T07:05:26;0.10;99.90
22966;DHT22;11649;48.090;9.754;2024-01-15T07:07:53;0.10;99.90
22966;DHT22;11649;48.090;9.754;2024-01-15T07:10:19;0.10;99.90
22966;DHT22;11649;48.090;9.754;2024-01-15T07:12:46;0.10;99.90
22966;DHT22;11649;48.090;9.754;2024-01-15T07:15:14;0.00;99.90
22966;DHT22;11649;48.090;9.754;2024-01-15T07:17:41;0.00;99.90
22966;DHT22;11649;48.090;9.754;2024-01-15T07:20:09;0.10;99.90
22966;DHT22;11649;48.090;9.754;2024-01-15T07:22:36;0.10;99.90
22966;DHT22;11649;48.090;9.754;2024-01-15T07:25:04;0.20;99.90
22966;DHT22;11649;48.090;9.754;2024-01-15T07:27:34;0.10;99.90
22966;DHT22;11649;48.090;9.754;2024-01-15T07:30:01;-0.10;99.90
22966;DHT22;11649;48.090;9.754;2024-01-15T07:32:29;-0.10;99.90
22966;DHT22;11649;48.090;9.754;2024-01-15T07:34:56;0.10;99.90
22966;DHT22;11649;48.090;9.754;2024-01-15T07:37:23;0.10;99.90
22966;DHT22;11649;48.090;9.754;2024-01-15T07:39:50;0.10;99.90
22966;DHT22;11649;48.090;9.754;2024-01-15T07:42:17;0.10;99.90
22966;DHT22;11649;48.090;9.754;2024-01-15T07:44:44;0.10;99.90
22966;DHT22;11649;48.090;9.754;2024-01-15T07:47:11;0.10;99.90
22966;DHT22;11649;48.090;9.754;2024-01-15T07:49:38;0.20;99.90
22966;DHT22;11649;48.090;9.754;2024-01-15T07:52:06;0.20;99.90
22966;DHT22;11649;48.090;9.754;2024-01-15T07:54:33;0.20;99.90
22966;DHT22;11649;48.090;9.754;2024-01-15T07:57:01;0.20;99.90
22966;DHT22;11649;48.090;9.754;2024-01-15T07:59:29;0.20;99.90
22966;DHT22;11649;48.090;9.754;2024-01-15T08:01:58;0.20;99.90
22966;DHT22;11649;48.090;9.754;2024-01-15T08:04:25;0.10;99.90
22966;DHT22;11649;48.090;9.754;2024-01-15T08:06:52;0.20;99.90
22966;DHT22;11649;48.090;9.754;2024-01-15T08:09:20;0.20;99.90
22966;DHT22;11649;48.090;9.754;2024-01-15T08:11:46;0.10;99.90
22966;DHT22;11649;48.090;9.754;2024-01-15T08:14:13;0.20;99.90
22966;DHT22;11649;48.090;9.754;2024-01-15T08:16:40;0.40;99.90
22966;DHT22;11649;48.090;9.754;2024-01-15T08:19:07;0.20;99.90
22966;DHT22;11649;48.090;9.754;2024-01-15T08:21:34;0.30;99.90
22966;DHT22;11649;48.090;9.754;2024-01-15T08:24:02;0.20;99.90
22966;DHT22;11649;48.090;9.754;2024-01-15T08:26:29;0.20;99.90
22966;DHT22;11649;48.090;9.754;2024-01-15T08:28:56;0.30;99.90
22966;DHT22;11649;48.090;9.754;2024-01-15T08:31:24;0.10;99.90
22966;DHT22;11649;48.090;9.754;2024-01-15T08:33:51;0.20;99.90
22966;DHT22;11649;48.090;9.754;2024-01-15T08:36:18;0.20;99.90
22966;DHT22;11649;48.090;9.754;2024-01-15T08:38:45;0.20;99.90
22966;DHT22;11649;48.090;9.754;2024-01-15T08:41:12;0.30;99.90
22966;DHT22;11649;48.090;9.754;2024-01-15T08:43:39;0.30;99.60
22966;DHT22;11649;48.090;9.754;2024-01-15T08:46:06;0.20;99.90
22966;DHT22;11649;48.090;9.754;2024-01-15T08:48:34;0.20;99.90
22966;DHT22;11649;48.090;9.754;2024-01-15T08:51:01;0.30;99.90
22966;DHT22;11649;48.090;9.754;2024-01-15T08:53:28;0.30;99.90
22966;DHT22;11649;48.090;9.754;2024-01-15T08:55:55;0.30;99.60
22966;DHT22;11649;48.090;9.754;2024-01-15T08:58:23;0.40;99.30
22966;DHT22;11649;48.090;9.754;2024-01-15T09:00:51;0.50;97.40
22966;DHT22;11649;48.090;9.754;2024-01-15T09:03:19;0.50;97.60
22966;DHT22;11649;48.090;9.754;2024-01-15T09:05:46;0.50;97.10
22966;DHT22;11649;48.090;9.754;2024-01-15T09:08:12;0.50;96.20
22966;DHT22;11649;48.090;9.754;2024-01-15T09:10:39;0.50;96.10
22966;DHT22;11649;48.090;9.754;2024-01-15T09:13:07;0.20;96.80
22966;DHT22;11649;48.090;9.754;2024-01-15T09:15:34;0.20;96.20
22966;DHT22;11649;48.090;9.754;2024-01-15T09:18:01;0.40;95.10
22966;DHT22;11649;48.090;9.754;2024-01-15T09:20:33;0.30;95.00
22966;DHT22;11649;48.090;9.754;2024-01-15T09:23:00;0.40;93.80
22966;DHT22;11649;48.090;9.754;2024-01-15T09:25:27;0.50;92.70
22966;DHT22;11649;48.090;9.754;2024-01-15T09:27:53;0.60;91.90
22966;DHT22;11649;48.090;9.754;2024-01-15T09:30:20;0.50;92.30
22966;DHT22;11649;48.090;9.754;2024-01-15T09:32:47;0.30;93.40
22966;DHT22;11649;48.090;9.754;2024-01-15T09:35:15;0.40;93.40
22966;DHT22;11649;48.090;9.754;2024-01-15T09:37:42;0.50;92.90
22966;DHT22;11649;48.090;9.754;2024-01-15T09:40:14;0.60;93.30
22966;DHT22;11649;48.090;9.754;2024-01-15T09:42:42;0.60;93.50
22966;DHT22;11649;48.090;9.754;2024-01-15T09:45:10;0.70;92.90
22966;DHT22;11649;48.090;9.754;2024-01-15T09:47:37;0.80;92.30
22966;DHT22;11649;48.090;9.754;2024-01-15T09:50:10;0.90;92.20
22966;DHT22;11649;48.090;9.754;2024-01-15T09:52:37;0.90;91.90
22966;DHT22;11649;48.090;9.754;2024-01-15T09:55:05;0.90;92.50
22966;DHT22;11649;48.090;9.754;2024-01-15T09:57:32;0.80;93.10
22966;DHT22;11649;48.090;9.754;2024-01-15T10:00:01;0.80;94.90
22966;DHT22;11649;48.090;9.754;2024-01-15T10:02:31;1.20;94.80
22966;DHT22;11649;48.090;9.754;2024-01-15T10:04:58;1.70;94.40
22966;DHT22;11649;48.090;9.754;2024-01-15T10:07:25;2.20;91.30
22966;DHT22;11649;48.090;9.754;2024-01-15T10:09:52;2.20;90.60
22966;DHT22;11649;48.090;9.754;2024-01-15T10:12:21;2.00;91.30
22966;DHT22;11649;48.090;9.754;2024-01-15T10:14:50;2.00;91.30
22966;DHT22;11649;48.090;9.754;2024-01-15T10:17:17;2.10;91.60
22966;DHT22;11649;48.090;9.754;2024-01-15T10:19:46;2.00;92.10
22966;DHT22;11649;48.090;9.754;2024-01-15T10:22:16;1.90;92.50
22966;DHT22;11649;48.090;9.754;2024-01-15T10:24:45;1.90;92.60
22966;DHT22;11649;48.090;9.754;2024-01-15T10:27:15;1.70;93.10
22966;DHT22;11649;48.090;9.754;2024-01-15T10:29:42;1.70;93.00
22966;DHT22;11649;48.090;9.754;2024-01-15T10:32:10;1.80;93.00
22966;DHT22;11649;48.090;9.754;2024-01-15T10:34:38;1.90;92.80
22966;DHT22;11649;48.090;9.754;2024-01-15T10:37:10;2.00;92.30
22966;DHT22;11649;48.090;9.754;2024-01-15T10:39:37;2.30;92.20
22966;DHT22;11649;48.090;9.754;2024-01-15T10:42:05;2.60;90.40
22966;DHT22;11649;48.090;9.754;2024-01-15T10:44:33;2.40;90.40
22966;DHT22;11649;48.090;9.754;2024-01-15T10:47:01;2.20;91.10
22966;DHT22;11649;48.090;9.754;2024-01-15T10:49:28;2.20;91.10
22966;DHT22;11649;48.090;9.754;2024-01-15T10:52:01;2.50;90.50
22966;DHT22;11649;48.090;9.754;2024-01-15T10:54:29;2.80;91.00
22966;DHT22;11649;48.090;9.754;2024-01-15T10:56:57;3.10;91.00
22966;DHT22;11649;48.090;9.754;2024-01-15T10:59:24;3.50;91.00
22966;DHT22;11649;48.090;9.754;2024-01-15T11:01:52;3.80;89.80
22966;DHT22;11649;48.090;9.754;2024-01-15T11:04:22;4.00;89.40
22966;DHT22;11649;48.090;9.754;2024-01-15T11:06:53;4.00;88.10
22966;DHT22;11649;48.090;9.754;2024-01-15T11:09:24;4.00;87.70
22966;DHT22;11649;48.090;9.754;2024-01-15T11:11:54;4.10;88.30
22966;DHT22;11649;48.090;9.754;2024-01-15T11:14:39;4.20;88.50
22966;DHT22;11649;48.090;9.754;2024-01-15T11:17:06;4.30;87.00
22966;DHT22;11649;48.090;9.754;2024-01-15T11:19:38;4.40;86.30
22966;DHT22;11649;48.090;9.754;2024-01-15T11:22:10;3.90;87.60
22966;DHT22;11649;48.090;9.754;2024-01-15T11:25:01;3.70;88.90
22966;DHT22;11649;48.090;9.754;2024-01-15T11:27:40;3.50;90.40
22966;DHT22;11649;48.090;9.754;2024-01-15T11:30:10;3.80;90.00
22966;DHT22;11649;48.090;9.754;2024-01-15T11:32:38;3.90;89.70
22966;DHT22;11649;48.090;9.754;2024-01-15T11:35:08;3.60;90.60
22966;DHT22;11649;48.090;9.754;2024-01-15T11:42:47;3.40;90.00
22966;DHT22;11649;48.090;9.754;2024-01-15T11:45:19;3.00;91.20
22966;DHT22;11649;48.090;9.754;2024-01-15T11:48:08;2.70;92.10
22966;DHT22;11649;48.090;9.754;2024-01-15T11:50:40;2.50;93.30
22966;DHT22;11649;48.090;9.754;2024-01-15T11:53:32;2.00;95.70
22966;DHT22;11649;48.090;9.754;2024-01-15T11:56:08;1.90;96.60
22966;DHT22;11649;48.090;9.754;2024-01-15T11:58:36;1.80;97.40
22966;DHT22;11649;48.090;9.754;2024-01-15T12:01:04;1.70;98.40
22966;DHT22;11649;48.090;9.754;2024-01-15T12:03:32;1.80;98.90
22966;DHT22;11649;48.090;9.754;2024-01-15T12:06:01;1.70;99.30
22966;DHT22;11649;48.090;9.754;2024-01-15T12:08:28;1.40;98.70
22966;DHT22;11649;48.090;9.754;2024-01-15T12:10:55;1.80;97.80
22966;DHT22;11649;48.090;9.754;2024-01-15T12:13:23;1.80;97.60
22966;DHT22;11649;48.090;9.754;2024-01-15T12:15:50;1.80;97.40
22966;DHT22;11649;48.090;9.754;2024-01-15T12:18:18;1.80;96.80
22966;DHT22;11649;48.090;9.754;2024-01-15T12:20:46;1.80;97.50
22966;DHT22;11649;48.090;9.754;2024-01-15T12:23:14;1.90;96.30
22966;DHT22;11649;48.090;9.754;2024-01-15T12:25:42;1.70;96.50
22966;DHT22;11649;48.090;9.754;2024-01-15T12:28:09;1.70;96.80
22966;DHT22;11649;48.090;9.754;2024-01-15T12:30:37;1.80;95.60
22966;DHT22;11649;48.090;9.754;2024-01-15T12:33:05;1.80;96.10
22966;DHT22;11649;48.090;9.754;2024-01-15T12:35:36;1.60;96.60
22966;DHT22;11649;48.090;9.754;2024-01-15T12:38:03;1.50;97.20
22966;DHT22;11649;48.090;9.754;2024-01-15T12:40:32;1.70;96.70
22966;DHT22;11649;48.090;9.754;2024-01-15T12:43:00;1.70;96.30
22966;DHT22;11649;48.090;9.754;2024-01-15T12:45:27;1.70;96.70
22966;DHT22;11649;48.090;9.754;2024-01-15T12:47:54;1.80;95.80
22966;DHT22;11649;48.090;9.754;2024-01-15T12:50:24;1.80;96.60
22966;DHT22;11649;48.090;9.754;2024-01-15T12:52:52;2.00;95.80
22966;DHT22;11649;48.090;9.754;2024-01-15T12:55:19;2.10;95.00
22966;DHT22;11649;48.090;9.754;2024-01-15T12:57:45;2.00;95.10
22966;DHT22;11649;48.090;9.754;2024-01-15T13:00:13;2.00;95.20
22966;DHT22;11649;48.090;9.754;2024-01-15T13:02:42;2.00;95.40
22966;DHT22;11649;48.090;9.754;2024-01-15T13:05:11;2.10;95.50
22966;DHT22;11649;48.090;9.754;2024-01-15T13:07:41;2.10;95.10
22966;DHT22;11649;48.090;9.754;2024-01-15T13:10:10;2.20;94.60
22966;DHT22;11649;48.090;9.754;2024-01-15T13:12:38;2.20;94.30
22966;DHT22;11649;48.090;9.754;2024-01-15T13:15:06;2.10;94.20
22966;DHT22;11649;48.090;9.754;2024-01-15T13:17:39;2.00;94.50
22966;DHT22;11649;48.090;9.754;2024-01-15T13:20:07;2.10;94.60
22966;DHT22;11649;48.090;9.754;2024-01-15T13:22:35;2.10;94.50
22966;DHT22;11649;48.090;9.754;2024-01-15T13:25:05;2.20;93.90
22966;DHT22;11649;48.090;9.754;2024-01-15T13:27:33;2.10;94.10
22966;DHT22;11649;48.090;9.754;2024-01-15T13:30:03;2.20;93.90
22966;DHT22;11649;48.090;9.754;2024-01-15T13:32:30;2.10;94.20
22966;DHT22;11649;48.090;9.754;2024-01-15T13:34:57;2.10;94.30
22966;DHT22;11649;48.090;9.754;2024-01-15T13:37:24;2.10;94.70
22966;DHT22;11649;48.090;9.754;2024-01-15T13:39:52;2.20;94.60
22966;DHT22;11649;48.090;9.754;2024-01-15T13:42:20;2.30;94.30
22966;DHT22;11649;48.090;9.754;2024-01-15T13:44:49;2.20;94.70
22966;DHT22;11649;48.090;9.754;2024-01-15T13:47:16;2.10;95.80
22966;DHT22;11649;48.090;9.754;2024-01-15T13:49:43;2.10;95.40
22966;DHT22;11649;48.090;9.754;2024-01-15T13:52:10;2.10;95.00
22966;DHT22;11649;48.090;9.754;2024-01-15T13:54:36;2.10;95.70
22966;DHT22;11649;48.090;9.754;2024-01-15T13:57:16;2.10;96.20
22966;DHT22;11649;48.090;9.754;2024-01-15T13:59:43;2.10;95.40
22966;DHT22;11649;48.090;9.754;2024-01-15T14:02:10;2.20;94.80
22966;DHT22;11649;48.090;9.754;2024-01-15T14:04:38;2.00;95.10
22966;DHT22;11649;48.090;9.754;2024-01-15T14:07:05;2.10;95.00
22966;DHT22;11649;48.090;9.754;2024-01-15T14:09:33;2.10;94.40
22966;DHT22;11649;48.090;9.754;2024-01-15T14:11:59;2.10;94.00
22966;DHT22;11649;48.090;9.754;2024-01-15T14:14:26;2.10;94.20
22966;DHT22;11649;48.090;9.754;2024-01-15T14:16:53;2.10;94.30
22966;DHT22;11649;48.090;9.754;2024-01-15T14:19:20;2.10;94.20
22966;DHT22;11649;48.090;9.754;2024-01-15T14:21:48;2.00;94.70
22966;DHT22;11649;48.090;9.754;2024-01-15T14:24:16;2.10;94.10
22966;DHT22;11649;48.090;9.754;2024-01-15T14:26:44;1.40;94.20
22966;DHT22;11649;48.090;9.754;2024-01-15T14:29:12;2.10;94.10
22966;DHT22;11649;48.090;9.754;2024-01-15T14:31:38;1.90;94.60
22966;DHT22;11649;48.090;9.754;2024-01-15T14:34:08;1.90;94.40
22966;DHT22;11649;48.090;9.754;2024-01-15T14:36:35;1.90;93.10
22966;DHT22;11649;48.090;9.754;2024-01-15T14:39:02;2.00;92.60
22966;DHT22;11649;48.090;9.754;2024-01-15T14:41:30;2.00;92.50
22966;DHT22;11649;48.090;9.754;2024-01-15T14:43:58;2.10;92.50
22966;DHT22;11649;48.090;9.754;2024-01-15T14:46:24;2.00;93.30
22966;DHT22;11649;48.090;9.754;2024-01-15T14:48:53;2.00;92.80
22966;DHT22;11649;48.090;9.754;2024-01-15T14:51:20;2.00;93.10
22966;DHT22;11649;48.090;9.754;2024-01-15T14:53:47;2.00;93.20
22966;DHT22;11649;48.090;9.754;2024-01-15T14:56:14;2.00;94.20
22966;DHT22;11649;48.090;9.754;2024-01-15T14:58:43;1.90;97.00
22966;DHT22;11649;48.090;9.754;2024-01-15T15:01:11;1.70;99.10
22966;DHT22;11649;48.090;9.754;2024-01-15T15:03:39;1.70;97.80
22966;DHT22;11649;48.090;9.754;2024-01-15T15:06:07;1.60;99.60
22966;DHT22;11649;48.090;9.754;2024-01-15T15:08:37;1.50;99.90
22966;DHT22;11649;48.090;9.754;2024-01-15T15:11:04;1.50;99.90
22966;DHT22;11649;48.090;9.754;2024-01-15T15:13:31;1.50;99.80
22966;DHT22;11649;48.090;9.754;2024-01-15T15:16:11;1.50;99.70
22966;DHT22;11649;48.090;9.754;2024-01-15T15:18:38;1.50;99.50
22966;DHT22;11649;48.090;9.754;2024-01-15T15:21:05;1.50;99.80
22966;DHT22;11649;48.090;9.754;2024-01-15T15:23:34;1.50;99.40
22966;DHT22;11649;48.090;9.754;2024-01-15T15:26:13;1.50;99.30
22966;DHT22;11649;48.090;9.754;2024-01-15T15:28:40;1.50;99.60
22966;DHT22;11649;48.090;9.754;2024-01-15T15:31:07;1.50;99.90
22966;DHT22;11649;48.090;9.754;2024-01-15T15:33:35;1.50;99.80
22966;DHT22;11649;48.090;9.754;2024-01-15T15:36:03;1.60;99.70
22966;DHT22;11649;48.090;9.754;2024-01-15T15:38:33;1.60;98.80
22966;DHT22;11649;48.090;9.754;2024-01-15T15:41:00;1.50;99.20
22966;DHT22;11649;48.090;9.754;2024-01-15T15:43:28;1.50;99.80
22966;DHT22;11649;48.090;9.754;2024-01-15T15:45:55;1.50;99.10
22966;DHT22;11649;48.090;9.754;2024-01-15T15:48:22;1.50;99.30